Terminal Aerodrome Forecast
Issued by NWS

Current Version | Previous Version | Text Only | Print | Product List | Glossary On
Versions: 1 2 3 4 5 6 7 8 9 10 11 12 13 14 15
000
FTUS46 KSTO 201700
TAFSAC
TAF
KSAC 201737Z 2018/2118 15008KT P6SM VCSH FEW008 OVC015
      TEMPO 2018/2021 4SM -SHRA BR BKN008
     FM202200 15009KT P6SM VCSH OVC030
     FM210800 VRB04KT 4SM BR OVC008
      TEMPO 2112/2116 1SM BR OVC003=

USA.gov is the U.S. government's official web portal to all federal, state and local government web resources and services.